Time;durP1;ratioP1;P1;durP2;ratioP2;P2;SDS_P1;SDS_P2;PMS_P1;PMS_P2;Temp;Humidity;BMP_temperature;BMP_pressure;BME280_temperature;BME280_humidity;BME280_pressure;Samples;Min_cycle;Max_cycle;Signal;HPM_P1;HPM_P2
2022/10/06 00:00:31;;;;;;;3.22;2.92;;;15.00;99.90;;;;;;5022312;28;20247;-71
2022/10/06 00:02:57;;;;;;;4.03;3.28;;;15.00;99.90;;;;;;5029022;28;20208;-71
2022/10/06 00:05:23;;;;;;;5.18;3.55;;;15.00;99.90;;;;;;5022128;28;20196;-71
2022/10/06 00:07:48;;;;;;;4.63;3.55;;;15.10;99.90;;;;;;5028781;28;20247;-71
2022/10/06 00:10:15;;;;;;;7.38;3.35;;;15.10;99.90;;;;;;5025994;28;20204;-71
2022/10/06 00:12:49;;;;;;;4.63;3.80;;;15.10;99.90;;;;;;5034308;28;20187;-71
2022/10/06 00:15:20;;;;;;;8.15;3.45;;;15.10;99.90;;;;;;5034490;28;20210;-71
2022/10/06 00:17:46;;;;;;;5.07;3.40;;;15.20;99.90;;;;;;5007890;28;20627;-71
2022/10/06 00:20:13;;;;;;;6.70;3.22;;;15.10;99.90;;;;;;5033163;28;20222;-71
2022/10/06 00:22:42;;;;;;;6.53;3.58;;;15.10;99.90;;;;;;5019597;28;20204;-72
2022/10/06 00:25:10;;;;;;;4.50;3.75;;;15.10;99.90;;;;;;5011692;28;20290;-72
2022/10/06 00:27:39;;;;;;;5.75;3.75;;;15.10;99.90;;;;;;5024089;28;20212;-72
2022/10/06 00:30:08;;;;;;;4.95;3.88;;;15.10;99.90;;;;;;5026557;28;20744;-71
2022/10/06 00:32:34;;;;;;;6.72;3.40;;;15.10;99.90;;;;;;5018274;28;20200;-71
2022/10/06 00:34:59;;;;;;;5.50;3.55;;;15.10;99.90;;;;;;5029474;28;20196;-71
2022/10/06 00:37:32;;;;;;;5.70;3.63;;;15.10;99.90;;;;;;5027093;28;20234;-71
2022/10/06 00:39:57;;;;;;;5.85;3.17;;;15.20;99.90;;;;;;5033101;28;20188;-71
2022/10/06 00:42:31;;;;;;;5.70;3.85;;;15.20;99.90;;;;;;5030865;28;20598;-71
2022/10/06 00:45:01;;;;;;;4.57;3.65;;;15.30;99.90;;;;;;5022509;28;20641;-71
2022/10/06 00:47:29;;;;;;;7.60;3.58;;;15.40;99.90;;;;;;5038013;28;20207;-71
2022/10/06 00:49:55;;;;;;;4.97;3.33;;;15.40;99.90;;;;;;5029485;28;20236;-71
2022/10/06 00:52:24;;;;;;;6.40;3.95;;;15.40;99.90;;;;;;5015712;28;20319;-71
2022/10/06 00:54:50;;;;;;;3.85;3.22;;;15.50;99.90;;;;;;5026410;28;20184;-72
2022/10/06 00:57:17;;;;;;;4.85;3.40;;;15.50;99.90;;;;;;5035862;28;20206;-71
2022/10/06 00:59:43;;;;;;;4.25;3.08;;;15.60;99.90;;;;;;5021254;28;20313;-71
2022/10/06 01:02:15;;;;;;;4.82;3.13;;;15.60;99.90;;;;;;5025788;28;20281;-71
2022/10/06 01:04:46;;;;;;;4.30;3.25;;;15.70;99.90;;;;;;5035863;28;20667;-72
2022/10/06 01:07:12;;;;;;;4.38;3.28;;;15.70;99.90;;;;;;5014285;28;20311;-72
2022/10/06 01:09:39;;;;;;;3.72;3.05;;;15.80;99.90;;;;;;5024716;28;20259;-71
2022/10/06 01:12:07;;;;;;;4.30;3.28;;;15.80;99.90;;;;;;5029958;28;20573;-71
2022/10/06 01:14:35;;;;;;;6.00;3.50;;;15.80;99.90;;;;;;5034886;28;20210;-72
2022/10/06 01:17:18;;;;;;;3.80;2.97;;;15.80;99.90;;;;;;5027122;28;20581;-71
2022/10/06 01:19:51;;;;;;;4.30;3.20;;;15.90;99.90;;;;;;5002634;28;20592;-71
2022/10/06 01:22:44;;;;;;;6.97;3.03;;;15.90;99.90;;;;;;5037154;28;20235;-71
2022/10/06 01:25:13;;;;;;;4.40;3.42;;;15.90;99.90;;;;;;5026217;28;20217;-71
2022/10/06 01:27:41;;;;;;;4.85;3.20;;;15.80;99.90;;;;;;5022840;28;20629;-71
2022/10/06 01:30:09;;;;;;;2.83;2.42;;;15.80;99.90;;;;;;5026293;28;20216;-71
2022/10/06 01:32:37;;;;;;;3.10;2.40;;;15.80;99.90;;;;;;5031131;28;20247;-72
2022/10/06 01:35:04;;;;;;;4.18;3.10;;;15.90;99.90;;;;;;5011175;28;20678;-71
2022/10/06 01:37:30;;;;;;;8.23;3.15;;;15.90;99.90;;;;;;5007610;28;20215;-71
2022/10/06 01:39:55;;;;;;;4.80;3.50;;;16.00;99.90;;;;;;5031972;28;20179;-71
2022/10/06 01:42:21;;;;;;;4.15;3.03;;;15.90;99.90;;;;;;5030389;28;20176;-71
2022/10/06 01:44:46;;;;;;;4.55;3.00;;;15.90;99.90;;;;;;5003577;28;20217;-71
2022/10/06 01:47:12;;;;;;;5.45;2.75;;;15.80;99.90;;;;;;5037602;28;20223;-71
2022/10/06 01:49:39;;;;;;;3.85;2.90;;;15.80;99.90;;;;;;5015883;28;20236;-71
2022/10/06 01:52:05;;;;;;;4.72;3.35;;;15.70;99.90;;;;;;5025515;28;20200;-71
2022/10/06 01:54:30;;;;;;;4.00;3.13;;;15.60;99.90;;;;;;5026989;28;20253;-72
2022/10/06 01:56:56;;;;;;;6.63;3.67;;;15.60;99.90;;;;;;5032652;28;20575;-71
2022/10/06 01:59:21;;;;;;;3.42;3.08;;;15.60;99.90;;;;;;5024811;28;20209;-71
2022/10/06 02:01:47;;;;;;;4.47;3.20;;;15.50;99.90;;;;;;5020623;28;20266;-71
2022/10/06 02:04:13;;;;;;;3.17;2.75;;;15.50;99.90;;;;;;5037707;28;20725;-71
2022/10/06 02:06:38;;;;;;;5.00;3.40;;;15.50;99.90;;;;;;5031291;28;20768;-71
2022/10/06 02:09:05;;;;;;;5.28;2.97;;;15.50;99.90;;;;;;5025455;28;20228;-72
2022/10/06 02:11:31;;;;;;;5.40;3.33;;;15.50;99.90;;;;;;5026174;28;20295;-71
2022/10/06 02:13:56;;;;;;;4.85;3.08;;;15.50;99.90;;;;;;5015086;28;20303;-72
2022/10/06 02:16:22;;;;;;;3.55;2.97;;;15.50;99.90;;;;;;5016885;28;20746;-71
2022/10/06 02:18:48;;;;;;;3.10;2.80;;;15.50;99.90;;;;;;5021745;28;20240;-71
2022/10/06 02:21:18;;;;;;;4.32;3.50;;;15.40;99.90;;;;;;5031361;28;20254;-71
2022/10/06 02:23:44;;;;;;;7.57;3.30;;;15.40;99.90;;;;;;5012664;28;20220;-71
2022/10/06 02:26:11;;;;;;;4.45;3.38;;;15.40;99.90;;;;;;5026276;28;20725;-71
2022/10/06 02:28:37;;;;;;;4.50;3.45;;;15.40;99.90;;;;;;5020653;23;20655;-70
2022/10/06 02:31:07;;;;;;;4.47;2.83;;;15.50;99.90;;;;;;5012686;28;20226;-71
2022/10/06 02:33:35;;;;;;;5.30;3.42;;;15.50;99.90;;;;;;5005980;28;20181;-71
2022/10/06 02:36:01;;;;;;;7.63;3.60;;;15.50;99.90;;;;;;5000609;28;20585;-71
2022/10/06 02:38:27;;;;;;;3.83;3.35;;;15.50;99.90;;;;;;5018568;28;20695;-71
2022/10/06 02:40:53;;;;;;;4.05;3.35;;;15.50;99.90;;;;;;5019531;28;20646;-70
2022/10/06 02:43:19;;;;;;;4.63;3.30;;;15.60;99.90;;;;;;5023885;28;20251;-71
2022/10/06 02:45:58;;;;;;;3.85;3.45;;;15.60;99.90;;;;;;5025691;28;20192;-70
2022/10/06 02:48:25;;;;;;;8.93;3.10;;;15.60;99.90;;;;;;5023833;28;20303;-71
2022/10/06 02:50:55;;;;;;;7.55;4.20;;;15.60;99.90;;;;;;5024543;28;20208;-71
2022/10/06 02:53:23;;;;;;;6.30;4.30;;;15.50;99.90;;;;;;5024349;28;20273;-71
2022/10/06 02:55:49;;;;;;;6.47;3.95;;;15.60;99.90;;;;;;5040653;28;20232;-71
2022/10/06 02:58:15;;;;;;;7.25;3.83;;;15.50;99.90;;;;;;5028400;28;20247;-71
2022/10/06 03:00:40;;;;;;;6.63;4.68;;;15.60;99.90;;;;;;5025529;28;20173;-71
2022/10/06 03:03:06;;;;;;;4.22;3.28;;;15.60;99.90;;;;;;5028604;28;20208;-71
2022/10/06 03:05:31;;;;;;;4.03;3.33;;;15.60;99.90;;;;;;5031428;28;20207;-71
2022/10/06 03:07:57;;;;;;;15.40;9.05;;;15.60;99.90;;;;;;5025583;28;20205;-69
2022/10/06 03:10:22;;;;;;;4.13;3.40;;;15.70;99.90;;;;;;5029281;28;20227;-71
2022/10/06 03:12:48;;;;;;;4.85;3.53;;;15.70;99.90;;;;;;5029514;28;20279;-70
2022/10/06 03:15:13;;;;;;;6.00;3.72;;;15.70;99.90;;;;;;5028510;28;20181;-71
2022/10/06 03:17:39;;;;;;;4.22;3.47;;;15.70;99.90;;;;;;5025572;28;20208;-71
2022/10/06 03:20:05;;;;;;;4.22;2.88;;;15.80;99.90;;;;;;5022542;28;20216;-71
2022/10/06 03:22:30;;;;;;;5.35;3.55;;;15.80;99.90;;;;;;5030429;28;20212;-71
2022/10/06 03:24:56;;;;;;;6.50;4.68;;;15.80;99.90;;;;;;5024042;28;20213;-71
2022/10/06 03:27:21;;;;;;;5.15;3.63;;;15.90;99.90;;;;;;5026274;28;20543;-72
2022/10/06 03:29:47;;;;;;;7.72;5.43;;;15.90;99.90;;;;;;5027057;28;20595;-71
2022/10/06 03:32:12;;;;;;;8.18;4.05;;;16.00;99.90;;;;;;5027884;28;20196;-71
2022/10/06 03:34:38;;;;;;;3.63;2.83;;;16.00;99.90;;;;;;5025738;28;20622;-71
2022/10/06 03:37:03;;;;;;;8.95;5.53;;;16.00;99.90;;;;;;5028067;28;20682;-71
2022/10/06 03:39:29;;;;;;;5.72;3.90;;;16.00;99.90;;;;;;5030289;28;20196;-71
2022/10/06 03:41:54;;;;;;;7.25;3.60;;;16.10;99.90;;;;;;5028248;28;20251;-71
2022/10/06 03:44:21;;;;;;;6.80;3.05;;;16.10;99.90;;;;;;5025564;28;20204;-71
2022/10/06 03:46:47;;;;;;;6.93;3.40;;;16.20;99.90;;;;;;5025838;28;20545;-70
2022/10/06 03:49:13;;;;;;;6.90;3.20;;;16.20;99.90;;;;;;5027765;28;20296;-71
2022/10/06 03:51:40;;;;;;;6.07;2.83;;;16.20;99.90;;;;;;5025683;28;20172;-71
2022/10/06 03:54:09;;;;;;;5.00;3.10;;;16.30;99.90;;;;;;5021276;28;20236;-70
2022/10/06 03:56:37;;;;;;;4.60;2.80;;;16.30;99.90;;;;;;5029873;28;20246;-71
2022/10/06 03:59:05;;;;;;;3.15;2.80;;;16.20;99.90;;;;;;5023332;28;20624;-71
2022/10/06 04:01:33;;;;;;;6.82;2.88;;;16.20;99.90;;;;;;5023722;28;20287;-71
2022/10/06 04:04:00;;;;;;;4.45;2.75;;;16.20;99.90;;;;;;5031531;28;20201;-71
2022/10/06 04:06:28;;;;;;;5.25;2.60;;;16.20;99.90;;;;;;5030794;28;20711;-71
2022/10/06 04:08:54;;;;;;;4.00;2.70;;;16.20;99.90;;;;;;5021826;28;20303;-69
2022/10/06 04:11:23;;;;;;;5.60;2.58;;;16.20;99.90;;;;;;5032601;28;20323;-71
2022/10/06 04:13:59;;;;;;;3.85;2.45;;;16.20;99.90;;;;;;5028620;28;20335;-71
2022/10/06 04:16:27;;;;;;;4.80;2.75;;;16.20;99.90;;;;;;5025807;28;20204;-71
2022/10/06 04:18:55;;;;;;;3.53;2.55;;;16.20;99.90;;;;;;5021077;28;20211;-70
2022/10/06 04:21:22;;;;;;;2.67;2.13;;;16.20;99.90;;;;;;5026979;28;20781;-71
2022/10/06 04:23:48;;;;;;;3.72;2.50;;;16.10;99.90;;;;;;5026764;28;20239;-70
2022/10/06 04:26:17;;;;;;;3.42;2.35;;;16.10;99.90;;;;;;5024494;28;20204;-71
2022/10/06 04:28:44;;;;;;;3.20;1.83;;;16.10;99.90;;;;;;5022275;28;20248;-71
2022/10/06 04:31:21;;;;;;;3.03;1.27;;;16.10;99.90;;;;;;5027305;28;20299;-71
2022/10/06 04:33:50;;;;;;;2.42;1.48;;;16.10;99.90;;;;;;5025265;28;20195;-71
2022/10/06 04:36:21;;;;;;;1.38;1.27;;;16.20;99.90;;;;;;5025296;28;20187;-71
2022/10/06 04:38:48;;;;;;;2.70;1.77;;;16.10;99.90;;;;;;5025135;28;20286;-71
2022/10/06 04:41:17;;;;;;;1.27;1.08;;;16.20;99.90;;;;;;5025186;28;20298;-72
2022/10/06 04:43:46;;;;;;;2.85;1.20;;;16.20;99.90;;;;;;5023161;28;20224;-71
2022/10/06 04:46:13;;;;;;;4.05;1.25;;;16.20;99.90;;;;;;5024095;28;20793;-71
2022/10/06 04:48:38;;;;;;;2.10;1.20;;;16.10;99.90;;;;;;5029012;28;20192;-72
2022/10/06 04:51:06;;;;;;;1.48;1.20;;;16.10;99.90;;;;;;5038555;28;20591;-71
2022/10/06 04:53:32;;;;;;;1.67;1.02;;;16.10;99.90;;;;;;5022725;28;20211;-69
2022/10/06 04:56:03;;;;;;;3.97;1.17;;;16.10;99.90;;;;;;5026255;28;20764;-70
2022/10/06 04:58:35;;;;;;;1.50;1.10;;;16.10;99.90;;;;;;5024728;28;20225;-72
2022/10/06 05:01:02;;;;;;;2.05;0.90;;;16.00;99.90;;;;;;5024796;28;20648;-69
2022/10/06 05:03:29;;;;;;;1.00;0.90;;;16.00;99.90;;;;;;5025967;28;20832;-69
2022/10/06 05:06:06;;;;;;;1.17;0.90;;;16.00;99.90;;;;;;5032102;28;20200;-71
2022/10/06 05:08:33;;;;;;;0.93;0.57;;;16.00;99.90;;;;;;5031676;28;20212;-69
2022/10/06 05:11:05;;;;;;;2.20;0.65;;;16.00;99.90;;;;;;5022096;28;20557;-71
2022/10/06 05:13:30;;;;;;;1.67;0.70;;;16.00;99.90;;;;;;5036830;28;20215;-71
2022/10/06 05:15:58;;;;;;;0.70;0.50;;;15.90;99.90;;;;;;5029176;28;20576;-71
2022/10/06 05:18:24;;;;;;;1.80;0.90;;;15.90;99.90;;;;;;5026772;28;20208;-70
2022/10/06 05:21:20;;;;;;;1.27;0.65;;;16.00;99.90;;;;;;5038021;28;20296;-70
2022/10/06 05:23:46;;;;;;;1.60;0.47;;;15.90;99.90;;;;;;5019297;28;20334;-69
2022/10/06 05:26:18;;;;;;;0.63;0.50;;;15.90;99.90;;;;;;5027579;28;20214;-69
2022/10/06 05:28:43;;;;;;;1.25;0.68;;;16.00;99.90;;;;;;5025560;28;20216;-68
2022/10/06 05:31:13;;;;;;;2.47;0.80;;;15.90;99.90;;;;;;5034295;28;20701;-70
2022/10/06 05:33:39;;;;;;;1.80;0.82;;;15.90;99.90;;;;;;5027495;28;20215;-71
2022/10/06 05:36:08;;;;;;;5.07;0.80;;;15.90;99.90;;;;;;5023362;28;20671;-71
2022/10/06 05:38:33;;;;;;;0.98;0.80;;;15.90;99.90;;;;;;5034061;28;20290;-71
2022/10/06 05:41:21;;;;;;;3.22;0.68;;;15.90;99.90;;;;;;5030854;28;20301;-71
2022/10/06 05:43:47;;;;;;;1.35;0.65;;;15.80;99.90;;;;;;5027223;28;20953;-71
2022/10/06 05:46:23;;;;;;;2.28;0.70;;;15.80;99.90;;;;;;5031562;28;20215;-71
2022/10/06 05:48:54;;;;;;;2.72;0.60;;;15.80;99.90;;;;;;5030379;28;20195;-70
2022/10/06 05:51:20;;;;;;;0.60;0.47;;;15.70;99.90;;;;;;5025712;28;20168;-71
2022/10/06 05:53:47;;;;;;;1.00;0.60;;;15.70;99.90;;;;;;5042387;28;20212;-71
2022/10/06 05:56:21;;;;;;;1.63;0.47;;;15.80;99.90;;;;;;5038441;28;20215;-71
2022/10/06 05:58:50;;;;;;;2.67;1.10;;;15.70;99.90;;;;;;5030730;28;20254;-71
2022/10/06 06:01:19;;;;;;;5.00;1.00;;;15.70;99.90;;;;;;5026117;28;20210;-71
2022/10/06 06:03:50;;;;;;;3.47;0.70;;;15.70;99.90;;;;;;5026110;28;20232;-70
2022/10/06 06:06:23;;;;;;;1.77;0.55;;;15.80;99.90;;;;;;5036983;28;20214;-71
2022/10/06 06:09:00;;;;;;;1.30;0.52;;;16.00;99.90;;;;;;5027335;28;20216;-71
2022/10/06 06:11:30;;;;;;;2.97;0.70;;;17.60;99.90;;;;;;5029892;28;20625;-71
2022/10/06 06:13:57;;;;;;;1.48;0.55;;;17.90;99.90;;;;;;5031276;28;20208;-70
2022/10/06 06:16:23;;;;;;;1.17;0.47;;;19.80;99.90;;;;;;5033277;28;20236;-71
2022/10/06 06:18:49;;;;;;;1.35;0.40;;;21.30;99.90;;;;;;5021746;28;20201;-71
2022/10/06 06:21:15;;;;;;;1.25;0.60;;;22.60;99.90;;;;;;5034354;28;20176;-71
2022/10/06 06:23:45;;;;;;;0.88;0.65;;;23.60;99.90;;;;;;5038937;28;20273;-71
2022/10/06 06:26:14;;;;;;;2.35;0.70;;;24.40;99.90;;;;;;5031005;28;20953;-71
2022/10/06 06:28:40;;;;;;;2.17;0.65;;;24.50;99.90;;;;;;5036544;28;20216;-71
2022/10/06 06:31:11;;;;;;;1.75;0.75;;;25.20;99.90;;;;;;5035077;28;20231;-71
2022/10/06 06:33:39;;;;;;;2.33;0.80;;;25.10;99.90;;;;;;5038373;28;20255;-71
2022/10/06 06:36:23;;;;;;;2.40;0.60;;;24.70;99.90;;;;;;5027131;28;20213;-72
2022/10/06 06:38:54;;;;;;;3.20;0.90;;;24.50;99.90;;;;;;5035277;28;20307;-72
2022/10/06 06:41:26;;;;;;;3.60;0.80;;;24.80;99.90;;;;;;5031308;28;20249;-70
2022/10/06 06:43:52;;;;;;;2.22;0.88;;;24.90;99.90;;;;;;5025295;28;20232;-70
2022/10/06 06:46:19;;;;;;;10.48;1.02;;;25.30;99.90;;;;;;5035592;28;20286;-70
2022/10/06 06:48:46;;;;;;;1.35;0.40;;;25.30;99.90;;;;;;5034135;28;20201;-70
2022/10/06 06:51:12;;;;;;;0.95;0.60;;;25.30;99.90;;;;;;5030584;28;20823;-70
2022/10/06 06:53:39;;;;;;;5.90;1.15;;;23.80;99.90;;;;;;5024696;28;20295;-70
2022/10/06 06:56:07;;;;;;;3.53;0.70;;;22.60;99.90;;;;;;5037535;28;20224;-70
2022/10/06 06:58:33;;;;;;;1.92;0.60;;;23.00;99.90;;;;;;5033589;28;20219;-69
2022/10/06 07:01:13;;;;;;;2.78;0.70;;;22.60;99.90;;;;;;5028412;28;20185;-73
2022/10/06 07:03:44;;;;;;;5.13;1.00;;;22.40;99.90;;;;;;5028109;28;20228;-70
2022/10/06 07:06:12;;;;;;;1.48;0.57;;;22.90;99.90;;;;;;5036933;28;20213;-70
2022/10/06 07:08:43;;;;;;;2.08;0.55;;;23.50;99.90;;;;;;5029256;28;20225;-71
2022/10/06 07:11:15;;;;;;;1.63;0.60;;;24.40;99.90;;;;;;5027135;28;20217;-70
2022/10/06 07:13:41;;;;;;;2.10;0.63;;;24.50;99.90;;;;;;5037652;28;20219;-69
2022/10/06 07:27:08;;;;;;;2.75;1.35;;;25.50;99.90;;;;;;5027136;28;20667;-70
2022/10/06 07:29:34;;;;;;;3.72;0.90;;;25.90;99.90;;;;;;5033046;28;20219;-71
2022/10/06 07:31:59;;;;;;;2.53;0.80;;;26.10;99.90;;;;;;5034042;28;20205;-70
2022/10/06 07:34:26;;;;;;;5.35;0.88;;;25.10;99.90;;;;;;5028723;28;20213;-70
2022/10/06 07:36:52;;;;;;;4.15;0.90;;;24.70;99.90;;;;;;5027901;28;20599;-70
2022/10/06 07:39:19;;;;;;;3.28;0.80;;;24.30;99.90;;;;;;5039731;28;20298;-70
2022/10/06 07:41:44;;;;;;;4.43;1.23;;;23.00;99.90;;;;;;5030738;28;20212;-70
2022/10/06 07:44:10;;;;;;;2.22;1.00;;;23.40;99.90;;;;;;5025464;28;20300;-70
2022/10/06 07:46:35;;;;;;;4.53;1.10;;;23.20;99.90;;;;;;5027122;28;20206;-70
2022/10/06 07:49:01;;;;;;;5.43;2.20;;;23.40;99.90;;;;;;5033861;28;20235;-71
2022/10/06 07:51:27;;;;;;;2.80;1.05;;;23.50;99.90;;;;;;5028436;28;20594;-70
2022/10/06 07:53:52;;;;;;;2.78;1.27;;;22.70;99.90;;;;;;5021522;28;20221;-70
2022/10/06 07:56:19;;;;;;;6.10;1.10;;;22.20;99.90;;;;;;5039278;28;20584;-70
2022/10/06 07:58:49;;;;;;;7.18;1.17;;;22.30;99.90;;;;;;5030731;28;20220;-69
2022/10/06 08:01:17;;;;;;;3.97;1.27;;;23.00;99.90;;;;;;5027455;28;20218;-71
2022/10/06 08:03:45;;;;;;;4.82;0.98;;;23.20;99.90;;;;;;5026794;28;20235;-70
2022/10/06 08:06:14;;;;;;;5.05;1.45;;;23.00;99.90;;;;;;5036076;28;20169;-69
2022/10/06 08:08:41;;;;;;;4.95;1.08;;;22.60;99.90;;;;;;5028325;28;20535;-70
2022/10/06 08:11:08;;;;;;;4.68;1.40;;;22.30;99.90;;;;;;5024668;28;20216;-71
2022/10/06 08:13:36;;;;;;;2.47;1.17;;;22.10;99.90;;;;;;5037022;28;20217;-71
2022/10/06 08:16:13;;;;;;;6.35;1.20;;;21.80;99.90;;;;;;5030718;28;20303;-70
2022/10/06 08:18:39;;;;;;;3.70;1.55;;;21.40;99.90;;;;;;5025460;28;20704;-70
2022/10/06 08:21:13;;;;;;;3.58;1.60;;;21.70;99.90;;;;;;5030465;28;20303;-70
2022/10/06 08:23:41;;;;;;;3.70;1.40;;;22.70;99.90;;;;;;5033795;28;20634;-71
2022/10/06 08:26:08;;;;;;;4.82;2.20;;;22.30;99.90;;;;;;5026492;28;20205;-70
2022/10/06 08:28:35;;;;;;;3.05;1.40;;;21.70;99.90;;;;;;5026590;28;20259;-71
2022/10/06 08:31:05;;;;;;;4.00;1.10;;;22.20;99.90;;;;;;5063362;23;20241;-71
2022/10/06 08:33:34;;;;;;;6.70;1.08;;;22.60;99.90;;;;;;5035053;28;20659;-71
2022/10/06 08:36:09;;;;;;;2.45;0.90;;;22.40;99.90;;;;;;5024001;28;20228;-70
2022/10/06 08:38:36;;;;;;;4.50;1.02;;;22.40;99.90;;;;;;5030099;28;20225;-71
2022/10/06 08:41:18;;;;;;;2.50;1.25;;;22.80;99.90;;;;;;5027940;28;20211;-71
2022/10/06 08:43:49;;;;;;;6.70;1.15;;;22.10;99.90;;;;;;5021207;28;20216;-70
2022/10/06 08:46:16;;;;;;;5.90;1.15;;;22.10;99.90;;;;;;5021948;28;20290;-71
2022/10/06 08:48:42;;;;;;;3.60;1.40;;;21.60;99.90;;;;;;5027948;28;20183;-71
2022/10/06 08:51:24;;;;;;;5.03;1.17;;;21.20;99.90;;;;;;5006448;28;20279;-71
2022/10/06 08:54:11;;;;;;;6.72;1.77;;;20.80;99.90;;;;;;5020134;28;20212;-71
2022/10/06 08:57:04;;;;;;;8.38;2.05;;;21.00;99.90;;;;;;5026483;28;20338;-71
2022/10/06 08:59:33;;;;;;;6.30;1.73;;;20.70;99.90;;;;;;5021273;28;20247;-71
2022/10/06 09:01:58;;;;;;;3.45;1.40;;;19.60;99.90;;;;;;5017319;28;20219;-71
2022/10/06 09:04:28;;;;;;;5.60;1.70;;;19.40;99.90;;;;;;5025862;28;20212;-71
2022/10/06 09:07:14;;;;;;;4.65;1.15;;;19.30;99.90;;;;;;5024997;28;20184;-70
2022/10/06 09:09:52;;;;;;;6.65;1.20;;;19.50;99.90;;;;;;5019878;28;20667;-70
2022/10/06 09:12:31;;;;;;;6.20;1.45;;;19.50;99.90;;;;;;5026444;28;20226;-70
2022/10/06 09:15:08;;;;;;;4.45;1.65;;;19.40;99.90;;;;;;5025727;28;20223;-70
2022/10/06 09:17:46;;;;;;;7.72;1.55;;;20.10;99.90;;;;;;5019809;28;20585;-71
2022/10/06 09:20:35;;;;;;;6.57;1.48;;;20.40;99.90;;;;;;5021113;28;20706;-71
2022/10/06 09:23:03;;;;;;;8.00;1.33;;;20.70;99.90;;;;;;5005996;28;20270;-71
2022/10/06 09:25:29;;;;;;;5.93;1.55;;;20.50;99.90;;;;;;5025605;28;20254;-71
2022/10/06 09:28:00;;;;;;;4.00;1.38;;;20.20;99.90;;;;;;5019239;28;20192;-71
2022/10/06 09:30:26;;;;;;;6.45;1.60;;;19.80;99.90;;;;;;5023815;28;20592;-71
2022/10/06 09:33:00;;;;;;;4.55;1.67;;;19.90;99.90;;;;;;5006158;28;20212;-71
2022/10/06 09:35:28;;;;;;;5.35;1.38;;;19.80;99.90;;;;;;5023249;28;20691;-71
2022/10/06 09:37:56;;;;;;;6.05;1.85;;;20.20;99.90;;;;;;5019644;28;20232;-71
2022/10/06 09:40:49;;;;;;;6.22;1.52;;;20.50;99.90;;;;;;5026911;28;20734;-71
2022/10/06 09:43:27;;;;;;;4.93;1.77;;;21.00;99.90;;;;;;5023763;28;20331;-71
2022/10/06 09:45:53;;;;;;;5.00;1.58;;;20.90;99.90;;;;;;5014727;28;20181;-71
2022/10/06 09:48:24;;;;;;;6.00;1.92;;;20.90;99.90;;;;;;5027861;28;20530;-71
2022/10/06 09:51:13;;;;;;;5.15;1.60;;;20.70;99.90;;;;;;5022697;28;20208;-71
2022/10/06 09:53:40;;;;;;;6.80;1.50;;;20.90;99.90;;;;;;5020204;28;20211;-71
2022/10/06 09:56:18;;;;;;;6.18;1.38;;;20.60;99.90;;;;;;5026687;28;20204;-71
2022/10/06 09:58:57;;;;;;;5.78;1.65;;;20.70;99.90;;;;;;5019839;28;20208;-71
2022/10/06 10:01:28;;;;;;;3.13;1.52;;;20.70;99.90;;;;;;5025317;28;20729;-71
2022/10/06 10:03:59;;;;;;;8.80;2.30;;;20.30;99.90;;;;;;5022597;28;20265;-71
2022/10/06 10:06:29;;;;;;;5.53;1.40;;;19.80;99.90;;;;;;5030615;28;20168;-71
2022/10/06 10:09:20;;;;;;;4.93;1.73;;;19.60;99.90;;;;;;5025324;28;20215;-71
2022/10/06 10:12:32;;;;;;;6.07;1.73;;;19.50;99.90;;;;;;5010826;28;20208;-71
2022/10/06 10:15:03;;;;;;;3.75;1.17;;;19.90;99.90;;;;;;5001004;28;20846;-71
2022/10/06 10:17:35;;;;;;;5.40;1.67;;;19.90;99.90;;;;;;5028637;28;20204;-71
2022/10/06 10:20:04;;;;;;;4.75;1.27;;;20.00;99.90;;;;;;5022767;28;20217;-71
2022/10/06 10:22:38;;;;;;;3.88;1.27;;;19.90;99.90;;;;;;5033023;28;20207;-71
2022/10/06 10:25:23;;;;;;;3.63;1.30;;;20.00;99.90;;;;;;5027038;28;20603;-70
2022/10/06 10:27:57;;;;;;;2.45;1.20;;;20.20;99.90;;;;;;5023834;28;20188;-71
2022/10/06 10:30:22;;;;;;;5.15;1.63;;;20.10;99.90;;;;;;5024998;28;20215;-71
2022/10/06 10:33:03;;;;;;;5.20;1.90;;;19.60;99.90;;;;;;5010508;28;20212;-71
2022/10/06 10:35:39;;;;;;;4.05;1.48;;;19.50;99.90;;;;;;5021293;28;20231;-71
2022/10/06 10:38:21;;;;;;;4.15;1.30;;;19.60;99.90;;;;;;5009277;28;20212;-70
2022/10/06 10:41:01;;;;;;;4.30;1.40;;;19.60;99.90;;;;;;5023638;28;20224;-71
2022/10/06 10:43:27;;;;;;;5.07;2.28;;;19.40;99.90;;;;;;5009492;28;20574;-71
2022/10/06 10:46:17;;;;;;;3.42;1.77;;;19.50;99.90;;;;;;5004024;28;20228;-70
2022/10/06 10:48:54;;;;;;;5.57;1.30;;;19.90;99.90;;;;;;5030767;28;20172;-71
2022/10/06 10:51:40;;;;;;;4.85;1.40;;;19.80;99.90;;;;;;5024975;28;20188;-71
2022/10/06 10:54:18;;;;;;;5.63;2.13;;;19.30;99.90;;;;;;5022361;28;20588;-70
2022/10/06 10:56:47;;;;;;;5.93;1.70;;;19.70;99.90;;;;;;5031401;28;20707;-68
2022/10/06 10:59:15;;;;;;;2.50;1.02;;;19.70;99.90;;;;;;5025248;28;20205;-69
2022/10/06 11:01:55;;;;;;;4.03;1.52;;;20.00;99.90;;;;;;5024489;28;20200;-70
2022/10/06 11:04:20;;;;;;;3.80;1.40;;;20.10;99.90;;;;;;5024840;28;20212;-70
2022/10/06 11:06:54;;;;;;;4.28;1.23;;;20.30;99.90;;;;;;5011188;28;20191;-70
2022/10/06 11:09:35;;;;;;;4.25;1.38;;;20.00;99.90;;;;;;5023316;28;20179;-70
2022/10/06 11:12:18;;;;;;;5.20;1.17;;;20.00;99.90;;;;;;5023012;28;20708;-70
2022/10/06 11:15:02;;;;;;;6.60;1.15;;;19.70;99.90;;;;;;5022877;28;20212;-70
2022/10/06 11:17:45;;;;;;;4.38;1.40;;;19.30;99.90;;;;;;5008740;28;20204;-70
2022/10/06 11:20:35;;;;;;;6.40;1.30;;;19.40;99.90;;;;;;4989091;28;20743;-69
2022/10/06 11:23:21;;;;;;;5.72;1.83;;;19.70;99.90;;;;;;5026921;28;20236;-69
2022/10/06 11:25:58;;;;;;;5.25;1.88;;;19.50;99.90;;;;;;5023719;28;20274;-69
2022/10/06 11:28:38;;;;;;;6.53;1.88;;;19.30;99.90;;;;;;5023318;28;20204;-70
2022/10/06 11:31:14;;;;;;;8.82;1.92;;;19.30;99.90;;;;;;5027867;28;20220;-69
2022/10/06 11:33:55;;;;;;;5.90;1.25;;;19.30;99.90;;;;;;5022104;28;20188;-69
2022/10/06 11:36:55;;;;;;;6.15;1.58;;;19.30;99.90;;;;;;5006877;28;20176;-70
2022/10/06 11:39:37;;;;;;;4.28;1.48;;;19.40;99.90;;;;;;5006806;28;20269;-71
2022/10/06 11:42:36;;;;;;;3.75;1.35;;;19.40;99.90;;;;;;5026588;28;20304;-69
2022/10/06 11:45:14;;;;;;;3.45;1.85;;;19.70;99.90;;;;;;5020859;28;20308;-69
2022/10/06 11:47:57;;;;;;;7.40;1.33;;;19.60;99.90;;;;;;5027669;28;20208;-70
2022/10/06 11:50:41;;;;;;;6.40;1.38;;;19.70;99.90;;;;;;5024347;28;20204;-70
2022/10/06 11:53:35;;;;;;;4.90;1.65;;;19.70;99.90;;;;;;4988362;28;20213;-70
2022/10/06 11:56:16;;;;;;;5.15;1.60;;;19.60;99.90;;;;;;5026250;28;20208;-69
2022/10/06 11:58:53;;;;;;;7.22;2.00;;;19.50;99.90;;;;;;5019517;28;20220;-70
2022/10/06 12:01:32;;;;;;;6.70;1.52;;;19.50;99.90;;;;;;5022800;28;20311;-70
2022/10/06 12:04:07;;;;;;;7.20;1.92;;;19.50;99.90;;;;;;5025247;28;20199;-69
2022/10/06 12:06:42;;;;;;;3.45;1.50;;;19.70;99.90;;;;;;5011738;28;20730;-70
2022/10/06 12:09:22;;;;;;;4.45;1.23;;;19.70;99.90;;;;;;5005858;28;20217;-69
2022/10/06 12:11:50;;;;;;;5.50;1.30;;;19.80;99.90;;;;;;5024409;28;20204;-70
2022/10/06 12:14:40;;;;;;;7.25;1.75;;;19.70;99.90;;;;;;5028720;28;20208;-70
2022/10/06 12:17:27;;;;;;;3.97;1.35;;;19.80;99.90;;;;;;5009390;28;20245;-70
2022/10/06 12:20:17;;;;;;;3.55;1.30;;;19.70;99.90;;;;;;5019972;28;20240;-70
2022/10/06 12:22:53;;;;;;;7.53;1.25;;;19.50;99.90;;;;;;5029012;28;20208;-70
2022/10/06 12:25:52;;;;;;;4.85;1.77;;;19.40;99.90;;;;;;5025403;28;20208;-73
2022/10/06 12:28:43;;;;;;;4.45;1.27;;;19.30;99.90;;;;;;5021667;28;20204;-69
2022/10/06 12:31:49;;;;;;;4.15;1.65;;;19.40;99.90;;;;;;5026929;28;20224;-69
2022/10/06 12:34:49;;;;;;;4.90;1.10;;;19.60;99.90;;;;;;5005021;28;20278;-69
2022/10/06 12:37:43;;;;;;;6.60;1.00;;;19.60;99.90;;;;;;5022629;28;20204;-69
2022/10/06 12:40:37;;;;;;;3.67;1.52;;;19.60;99.90;;;;;;5028436;28;20707;-70
2022/10/06 12:43:17;;;;;;;5.18;1.13;;;19.60;99.90;;;;;;5025622;28;20683;-69
2022/10/06 12:45:49;;;;;;;3.65;1.23;;;19.60;99.90;;;;;;5021106;28;20180;-70
2022/10/06 12:48:42;;;;;;;5.78;1.50;;;19.40;99.90;;;;;;5012620;28;20179;-71
2022/10/06 12:51:34;;;;;;;6.55;1.65;;;19.30;99.90;;;;;;4958492;28;20218;-69
2022/10/06 12:54:19;;;;;;;7.18;1.60;;;19.10;99.90;;;;;;5018758;28;20209;-69
2022/10/06 12:56:59;;;;;;;4.68;1.52;;;18.90;99.90;;;;;;5011035;28;20212;-69
2022/10/06 12:59:37;;;;;;;4.65;1.30;;;18.90;99.90;;;;;;5020361;28;20230;-69
2022/10/06 13:02:16;;;;;;;7.38;1.88;;;19.10;99.90;;;;;;5020786;28;20592;-69
2022/10/06 13:04:58;;;;;;;6.68;1.55;;;19.10;99.90;;;;;;5026485;28;20511;-70
2022/10/06 13:07:32;;;;;;;4.15;1.33;;;19.10;99.90;;;;;;5003330;28;20209;-69
2022/10/06 13:10:13;;;;;;;6.18;1.90;;;19.10;99.90;;;;;;5021233;28;20208;-69
2022/10/06 13:12:47;;;;;;;4.45;1.20;;;19.20;99.90;;;;;;5005437;28;20313;-69
2022/10/06 13:15:26;;;;;;;6.68;1.60;;;19.20;99.90;;;;;;5026484;28;20286;-70
2022/10/06 13:17:56;;;;;;;4.05;1.50;;;19.10;99.90;;;;;;5022142;28;20209;-69
2022/10/06 13:20:35;;;;;;;8.73;1.52;;;19.00;99.90;;;;;;5022627;28;20292;-69
2022/10/06 13:23:21;;;;;;;7.47;2.17;;;19.00;99.90;;;;;;5027071;28;20681;-72